sensor_id;sensor_type;location;lat;lon;timestamp;P1;durP1;ratioP1;P2;durP2;ratioP2
15486;SDS011;7845;53.698;10.078;2023-06-04T00:00:47;3.03;;;1.73;;
15486;SDS011;7845;53.698;10.078;2023-06-04T00:03:13;3.57;;;1.60;;
15486;SDS011;7845;53.698;10.078;2023-06-04T00:05:39;2.70;;;1.50;;
15486;SDS011;7845;53.698;10.078;2023-06-04T00:08:04;2.63;;;1.57;;
15486;SDS011;7845;53.698;10.078;2023-06-04T00:10:33;2.80;;;1.40;;
15486;SDS011;7845;53.698;10.078;2023-06-04T00:13:00;3.47;;;1.83;;
15486;SDS011;7845;53.698;10.078;2023-06-04T00:15:25;3.40;;;1.37;;
15486;SDS011;7845;53.698;10.078;2023-06-04T00:17:52;3.20;;;1.80;;
15486;SDS011;7845;53.698;10.078;2023-06-04T00:20:17;2.77;;;1.43;;
15486;SDS011;7845;53.698;10.078;2023-06-04T00:22:45;2.60;;;1.60;;
15486;SDS011;7845;53.698;10.078;2023-06-04T00:25:10;2.60;;;1.80;;
15486;SDS011;7845;53.698;10.078;2023-06-04T00:27:39;2.70;;;1.70;;
15486;SDS011;7845;53.698;10.078;2023-06-04T00:30:06;2.73;;;1.73;;
15486;SDS011;7845;53.698;10.078;2023-06-04T00:32:33;3.13;;;1.50;;
15486;SDS011;7845;53.698;10.078;2023-06-04T00:34:58;2.60;;;1.70;;
15486;SDS011;7845;53.698;10.078;2023-06-04T00:37:25;3.50;;;2.43;;
15486;SDS011;7845;53.698;10.078;2023-06-04T00:39:53;3.93;;;1.57;;
15486;SDS011;7845;53.698;10.078;2023-06-04T00:42:19;3.70;;;2.70;;
15486;SDS011;7845;53.698;10.078;2023-06-04T00:44:44;2.50;;;1.40;;
15486;SDS011;7845;53.698;10.078;2023-06-04T00:47:12;5.63;;;1.80;;
15486;SDS011;7845;53.698;10.078;2023-06-04T00:49:39;3.23;;;1.97;;
15486;SDS011;7845;53.698;10.078;2023-06-04T00:52:06;2.53;;;1.63;;
15486;SDS011;7845;53.698;10.078;2023-06-04T00:54:33;2.80;;;1.73;;
15486;SDS011;7845;53.698;10.078;2023-06-04T00:57:03;2.50;;;1.57;;
15486;SDS011;7845;53.698;10.078;2023-06-04T00:59:29;3.13;;;1.90;;
15486;SDS011;7845;53.698;10.078;2023-06-04T01:02:11;3.20;;;1.70;;
15486;SDS011;7845;53.698;10.078;2023-06-04T01:04:46;2.60;;;1.60;;
15486;SDS011;7845;53.698;10.078;2023-06-04T01:07:20;2.57;;;1.60;;
15486;SDS011;7845;53.698;10.078;2023-06-04T01:09:46;3.50;;;1.43;;
15486;SDS011;7845;53.698;10.078;2023-06-04T01:12:13;2.57;;;1.50;;
15486;SDS011;7845;53.698;10.078;2023-06-04T01:14:38;2.97;;;1.60;;
15486;SDS011;7845;53.698;10.078;2023-06-04T01:20:07;2.80;;;1.70;;
15486;SDS011;7845;53.698;10.078;2023-06-04T01:25:04;4.43;;;1.90;;
15486;SDS011;7845;53.698;10.078;2023-06-04T01:27:35;3.73;;;2.43;;
15486;SDS011;7845;53.698;10.078;2023-06-04T01:30:01;3.40;;;1.50;;
15486;SDS011;7845;53.698;10.078;2023-06-04T01:32:28;3.40;;;1.60;;
15486;SDS011;7845;53.698;10.078;2023-06-04T01:34:55;2.90;;;1.40;;
15486;SDS011;7845;53.698;10.078;2023-06-04T01:37:21;3.60;;;1.63;;
15486;SDS011;7845;53.698;10.078;2023-06-04T01:39:47;3.10;;;1.73;;
15486;SDS011;7845;53.698;10.078;2023-06-04T01:42:12;2.87;;;1.57;;
15486;SDS011;7845;53.698;10.078;2023-06-04T01:44:37;3.40;;;1.87;;
15486;SDS011;7845;53.698;10.078;2023-06-04T01:47:04;2.80;;;1.77;;
15486;SDS011;7845;53.698;10.078;2023-06-04T01:49:30;2.67;;;1.70;;
15486;SDS011;7845;53.698;10.078;2023-06-04T01:51:55;2.70;;;1.60;;
15486;SDS011;7845;53.698;10.078;2023-06-04T01:54:22;3.73;;;1.80;;
15486;SDS011;7845;53.698;10.078;2023-06-04T01:56:47;3.23;;;1.90;;
15486;SDS011;7845;53.698;10.078;2023-06-04T01:59:13;3.43;;;1.70;;
15486;SDS011;7845;53.698;10.078;2023-06-04T02:01:41;3.10;;;1.97;;
15486;SDS011;7845;53.698;10.078;2023-06-04T02:04:06;2.53;;;1.73;;
15486;SDS011;7845;53.698;10.078;2023-06-04T02:06:32;3.33;;;2.03;;
15486;SDS011;7845;53.698;10.078;2023-06-04T02:08:58;3.87;;;2.20;;
15486;SDS011;7845;53.698;10.078;2023-06-04T02:11:25;2.80;;;1.50;;
15486;SDS011;7845;53.698;10.078;2023-06-04T02:13:50;3.20;;;2.00;;
15486;SDS011;7845;53.698;10.078;2023-06-04T02:16:17;3.63;;;1.90;;
15486;SDS011;7845;53.698;10.078;2023-06-04T02:18:42;3.33;;;2.13;;
15486;SDS011;7845;53.698;10.078;2023-06-04T02:21:08;3.10;;;2.27;;
15486;SDS011;7845;53.698;10.078;2023-06-04T02:23:34;5.43;;;2.20;;
15486;SDS011;7845;53.698;10.078;2023-06-04T02:25:59;3.00;;;2.10;;
15486;SDS011;7845;53.698;10.078;2023-06-04T02:28:24;3.23;;;2.17;;
15486;SDS011;7845;53.698;10.078;2023-06-04T02:30:51;3.40;;;2.10;;
15486;SDS011;7845;53.698;10.078;2023-06-04T02:33:16;3.20;;;1.83;;
15486;SDS011;7845;53.698;10.078;2023-06-04T02:35:43;3.13;;;2.00;;
15486;SDS011;7845;53.698;10.078;2023-06-04T02:38:09;4.37;;;2.40;;
15486;SDS011;7845;53.698;10.078;2023-06-04T02:40:35;3.50;;;2.50;;
15486;SDS011;7845;53.698;10.078;2023-06-04T02:43:04;3.20;;;2.40;;
15486;SDS011;7845;53.698;10.078;2023-06-04T02:45:32;3.67;;;2.30;;
15486;SDS011;7845;53.698;10.078;2023-06-04T02:47:57;2.90;;;2.07;;
15486;SDS011;7845;53.698;10.078;2023-06-04T02:50:22;3.00;;;1.90;;
15486;SDS011;7845;53.698;10.078;2023-06-04T02:52:48;4.00;;;2.40;;
15486;SDS011;7845;53.698;10.078;2023-06-04T02:55:13;3.03;;;2.03;;
15486;SDS011;7845;53.698;10.078;2023-06-04T02:57:39;3.40;;;2.13;;
15486;SDS011;7845;53.698;10.078;2023-06-04T03:00:10;3.70;;;1.90;;
15486;SDS011;7845;53.698;10.078;2023-06-04T03:02:45;3.10;;;1.70;;
15486;SDS011;7845;53.698;10.078;2023-06-04T03:05:11;2.93;;;1.93;;
15486;SDS011;7845;53.698;10.078;2023-06-04T03:07:42;3.40;;;2.13;;
15486;SDS011;7845;53.698;10.078;2023-06-04T03:10:09;3.60;;;2.50;;
15486;SDS011;7845;53.698;10.078;2023-06-04T03:12:37;3.50;;;2.10;;
15486;SDS011;7845;53.698;10.078;2023-06-04T03:15:03;3.40;;;2.00;;
15486;SDS011;7845;53.698;10.078;2023-06-04T03:17:30;2.77;;;1.87;;
15486;SDS011;7845;53.698;10.078;2023-06-04T03:19:57;3.40;;;2.33;;
15486;SDS011;7845;53.698;10.078;2023-06-04T03:22:23;4.37;;;2.20;;
15486;SDS011;7845;53.698;10.078;2023-06-04T03:24:49;2.90;;;1.87;;
15486;SDS011;7845;53.698;10.078;2023-06-04T03:27:14;4.30;;;2.23;;
15486;SDS011;7845;53.698;10.078;2023-06-04T03:29:40;3.53;;;2.37;;
15486;SDS011;7845;53.698;10.078;2023-06-04T03:32:05;3.63;;;2.47;;
15486;SDS011;7845;53.698;10.078;2023-06-04T03:34:31;3.77;;;2.27;;
15486;SDS011;7845;53.698;10.078;2023-06-04T03:36:58;3.30;;;1.90;;
15486;SDS011;7845;53.698;10.078;2023-06-04T03:39:23;3.60;;;2.40;;
15486;SDS011;7845;53.698;10.078;2023-06-04T03:41:49;3.33;;;2.17;;
15486;SDS011;7845;53.698;10.078;2023-06-04T03:44:16;3.13;;;1.97;;
15486;SDS011;7845;53.698;10.078;2023-06-04T03:46:43;3.30;;;1.90;;
15486;SDS011;7845;53.698;10.078;2023-06-04T03:49:10;3.33;;;1.73;;
15486;SDS011;7845;53.698;10.078;2023-06-04T03:51:40;3.23;;;2.30;;
15486;SDS011;7845;53.698;10.078;2023-06-04T03:54:06;3.10;;;2.23;;
15486;SDS011;7845;53.698;10.078;2023-06-04T03:56:31;3.60;;;2.10;;
15486;SDS011;7845;53.698;10.078;2023-06-04T03:59:00;2.70;;;1.63;;
15486;SDS011;7845;53.698;10.078;2023-06-04T04:01:27;3.87;;;2.10;;
15486;SDS011;7845;53.698;10.078;2023-06-04T04:03:56;3.17;;;2.00;;
15486;SDS011;7845;53.698;10.078;2023-06-04T04:06:22;3.83;;;2.13;;
15486;SDS011;7845;53.698;10.078;2023-06-04T04:08:48;4.37;;;2.20;;
15486;SDS011;7845;53.698;10.078;2023-06-04T04:11:16;3.10;;;1.93;;
15486;SDS011;7845;53.698;10.078;2023-06-04T04:13:46;4.60;;;1.90;;
15486;SDS011;7845;53.698;10.078;2023-06-04T04:16:12;3.00;;;1.70;;
15486;SDS011;7845;53.698;10.078;2023-06-04T04:18:38;2.70;;;1.60;;
15486;SDS011;7845;53.698;10.078;2023-06-04T04:21:05;2.77;;;1.63;;
15486;SDS011;7845;53.698;10.078;2023-06-04T04:23:31;3.00;;;1.83;;
15486;SDS011;7845;53.698;10.078;2023-06-04T04:25:58;2.67;;;1.60;;
15486;SDS011;7845;53.698;10.078;2023-06-04T04:28:25;2.70;;;1.43;;
15486;SDS011;7845;53.698;10.078;2023-06-04T04:30:54;3.30;;;1.70;;
15486;SDS011;7845;53.698;10.078;2023-06-04T04:33:21;3.23;;;1.50;;
15486;SDS011;7845;53.698;10.078;2023-06-04T04:35:49;3.20;;;1.50;;
15486;SDS011;7845;53.698;10.078;2023-06-04T04:38:17;3.33;;;1.83;;
15486;SDS011;7845;53.698;10.078;2023-06-04T04:40:44;3.00;;;1.40;;
15486;SDS011;7845;53.698;10.078;2023-06-04T04:43:12;3.97;;;1.73;;
15486;SDS011;7845;53.698;10.078;2023-06-04T04:45:38;5.00;;;1.97;;
15486;SDS011;7845;53.698;10.078;2023-06-04T04:48:04;8.63;;;2.00;;
15486;SDS011;7845;53.698;10.078;2023-06-04T04:50:29;4.60;;;1.90;;
15486;SDS011;7845;53.698;10.078;2023-06-04T04:52:57;4.80;;;1.87;;
15486;SDS011;7845;53.698;10.078;2023-06-04T04:55:23;3.53;;;1.73;;
15486;SDS011;7845;53.698;10.078;2023-06-04T04:57:48;3.80;;;2.33;;
15486;SDS011;7845;53.698;10.078;2023-06-04T05:00:14;4.10;;;2.30;;
15486;SDS011;7845;53.698;10.078;2023-06-04T05:02:41;3.33;;;2.00;;
15486;SDS011;7845;53.698;10.078;2023-06-04T05:05:06;5.27;;;2.43;;
15486;SDS011;7845;53.698;10.078;2023-06-04T05:07:32;4.10;;;2.30;;
15486;SDS011;7845;53.698;10.078;2023-06-04T05:09:57;7.03;;;2.60;;
15486;SDS011;7845;53.698;10.078;2023-06-04T05:12:24;3.80;;;2.20;;
15486;SDS011;7845;53.698;10.078;2023-06-04T05:14:50;3.47;;;2.07;;
15486;SDS011;7845;53.698;10.078;2023-06-04T05:17:15;4.23;;;2.60;;
15486;SDS011;7845;53.698;10.078;2023-06-04T05:19:41;6.57;;;2.90;;
15486;SDS011;7845;53.698;10.078;2023-06-04T05:22:07;3.63;;;2.00;;
15486;SDS011;7845;53.698;10.078;2023-06-04T05:24:33;6.83;;;2.57;;
15486;SDS011;7845;53.698;10.078;2023-06-04T05:27:00;4.90;;;2.50;;
15486;SDS011;7845;53.698;10.078;2023-06-04T05:29:25;5.57;;;2.30;;
15486;SDS011;7845;53.698;10.078;2023-06-04T05:31:51;4.53;;;2.47;;
15486;SDS011;7845;53.698;10.078;2023-06-04T05:34:16;4.87;;;2.27;;
15486;SDS011;7845;53.698;10.078;2023-06-04T05:36:43;3.60;;;2.23;;
15486;SDS011;7845;53.698;10.078;2023-06-04T05:39:09;4.40;;;2.10;;
15486;SDS011;7845;53.698;10.078;2023-06-04T05:41:35;6.90;;;3.10;;
15486;SDS011;7845;53.698;10.078;2023-06-04T05:44:01;8.23;;;2.10;;
15486;SDS011;7845;53.698;10.078;2023-06-04T05:46:27;4.70;;;2.20;;
15486;SDS011;7845;53.698;10.078;2023-06-04T05:48:53;5.27;;;2.57;;
15486;SDS011;7845;53.698;10.078;2023-06-04T05:51:20;4.57;;;2.50;;
15486;SDS011;7845;53.698;10.078;2023-06-04T05:53:45;3.97;;;2.40;;
15486;SDS011;7845;53.698;10.078;2023-06-04T05:56:12;4.20;;;2.33;;
15486;SDS011;7845;53.698;10.078;2023-06-04T05:58:37;5.20;;;2.60;;
15486;SDS011;7845;53.698;10.078;2023-06-04T06:01:04;4.40;;;2.03;;
15486;SDS011;7845;53.698;10.078;2023-06-04T06:03:30;5.00;;;2.50;;
15486;SDS011;7845;53.698;10.078;2023-06-04T06:05:55;4.10;;;2.57;;
15486;SDS011;7845;53.698;10.078;2023-06-04T06:08:22;4.20;;;2.90;;
15486;SDS011;7845;53.698;10.078;2023-06-04T06:10:48;8.93;;;3.10;;
15486;SDS011;7845;53.698;10.078;2023-06-04T06:13:13;5.30;;;2.50;;
15486;SDS011;7845;53.698;10.078;2023-06-04T06:15:38;5.90;;;3.67;;
15486;SDS011;7845;53.698;10.078;2023-06-04T06:18:04;6.33;;;3.20;;
15486;SDS011;7845;53.698;10.078;2023-06-04T06:20:32;5.43;;;2.83;;
15486;SDS011;7845;53.698;10.078;2023-06-04T06:23:05;6.13;;;3.13;;
15486;SDS011;7845;53.698;10.078;2023-06-04T06:25:31;4.47;;;2.33;;
15486;SDS011;7845;53.698;10.078;2023-06-04T06:27:56;5.57;;;2.00;;
15486;SDS011;7845;53.698;10.078;2023-06-04T06:30:22;5.57;;;2.13;;
15486;SDS011;7845;53.698;10.078;2023-06-04T06:32:50;7.10;;;3.20;;
15486;SDS011;7845;53.698;10.078;2023-06-04T06:35:16;5.20;;;2.23;;
15486;SDS011;7845;53.698;10.078;2023-06-04T06:37:43;5.67;;;2.30;;
15486;SDS011;7845;53.698;10.078;2023-06-04T06:40:09;3.87;;;1.80;;
15486;SDS011;7845;53.698;10.078;2023-06-04T06:42:36;4.63;;;2.20;;
15486;SDS011;7845;53.698;10.078;2023-06-04T06:45:01;4.17;;;2.03;;
15486;SDS011;7845;53.698;10.078;2023-06-04T06:47:27;4.40;;;2.17;;
15486;SDS011;7845;53.698;10.078;2023-06-04T06:49:52;5.40;;;2.67;;
15486;SDS011;7845;53.698;10.078;2023-06-04T06:52:17;4.53;;;2.43;;
15486;SDS011;7845;53.698;10.078;2023-06-04T06:54:46;5.47;;;2.20;;
15486;SDS011;7845;53.698;10.078;2023-06-04T06:57:14;4.20;;;2.47;;
15486;SDS011;7845;53.698;10.078;2023-06-04T06:59:40;5.10;;;2.70;;
15486;SDS011;7845;53.698;10.078;2023-06-04T07:02:06;4.73;;;2.00;;
15486;SDS011;7845;53.698;10.078;2023-06-04T07:04:32;5.20;;;2.00;;
15486;SDS011;7845;53.698;10.078;2023-06-04T07:06:59;3.20;;;1.90;;
15486;SDS011;7845;53.698;10.078;2023-06-04T07:09:24;4.10;;;1.77;;
15486;SDS011;7845;53.698;10.078;2023-06-04T07:11:49;3.10;;;1.40;;
15486;SDS011;7845;53.698;10.078;2023-06-04T07:14:16;3.27;;;1.90;;
15486;SDS011;7845;53.698;10.078;2023-06-04T07:16:41;5.80;;;1.80;;
15486;SDS011;7845;53.698;10.078;2023-06-04T07:19:09;4.13;;;1.90;;
15486;SDS011;7845;53.698;10.078;2023-06-04T07:21:36;3.70;;;1.70;;
15486;SDS011;7845;53.698;10.078;2023-06-04T07:24:05;3.70;;;2.10;;
15486;SDS011;7845;53.698;10.078;2023-06-04T07:26:32;3.40;;;1.60;;
15486;SDS011;7845;53.698;10.078;2023-06-04T07:29:00;3.33;;;1.80;;
15486;SDS011;7845;53.698;10.078;2023-06-04T07:31:27;3.30;;;1.43;;
15486;SDS011;7845;53.698;10.078;2023-06-04T07:33:52;3.90;;;1.40;;
15486;SDS011;7845;53.698;10.078;2023-06-04T07:36:18;3.10;;;1.60;;
15486;SDS011;7845;53.698;10.078;2023-06-04T07:38:43;3.10;;;1.67;;
15486;SDS011;7845;53.698;10.078;2023-06-04T07:41:09;3.37;;;1.80;;
15486;SDS011;7845;53.698;10.078;2023-06-04T07:43:35;2.80;;;1.57;;
15486;SDS011;7845;53.698;10.078;2023-06-04T07:46:02;4.33;;;1.90;;
15486;SDS011;7845;53.698;10.078;2023-06-04T07:48:31;4.67;;;1.50;;
15486;SDS011;7845;53.698;10.078;2023-06-04T07:50:57;2.80;;;1.33;;
15486;SDS011;7845;53.698;10.078;2023-06-04T07:53:23;3.67;;;1.40;;
15486;SDS011;7845;53.698;10.078;2023-06-04T07:55:49;5.20;;;1.40;;
15486;SDS011;7845;53.698;10.078;2023-06-04T07:58:15;3.03;;;1.53;;
15486;SDS011;7845;53.698;10.078;2023-06-04T08:00:40;3.30;;;1.97;;
15486;SDS011;7845;53.698;10.078;2023-06-04T08:03:06;3.10;;;1.47;;
15486;SDS011;7845;53.698;10.078;2023-06-04T08:05:34;3.13;;;1.70;;
15486;SDS011;7845;53.698;10.078;2023-06-04T08:08:00;3.63;;;1.67;;
15486;SDS011;7845;53.698;10.078;2023-06-04T08:10:26;3.07;;;1.60;;
15486;SDS011;7845;53.698;10.078;2023-06-04T08:12:52;4.53;;;1.80;;
15486;SDS011;7845;53.698;10.078;2023-06-04T08:15:17;3.30;;;1.63;;
15486;SDS011;7845;53.698;10.078;2023-06-04T08:17:42;2.70;;;1.40;;
15486;SDS011;7845;53.698;10.078;2023-06-04T08:20:08;3.37;;;1.47;;
15486;SDS011;7845;53.698;10.078;2023-06-04T08:22:36;3.37;;;1.60;;
15486;SDS011;7845;53.698;10.078;2023-06-04T08:25:04;5.13;;;1.30;;
15486;SDS011;7845;53.698;10.078;2023-06-04T08:27:30;2.93;;;1.20;;
15486;SDS011;7845;53.698;10.078;2023-06-04T08:29:56;2.67;;;1.20;;
15486;SDS011;7845;53.698;10.078;2023-06-04T08:32:22;2.30;;;1.00;;
15486;SDS011;7845;53.698;10.078;2023-06-04T08:34:48;2.60;;;1.23;;
15486;SDS011;7845;53.698;10.078;2023-06-04T08:37:13;2.60;;;1.13;;
15486;SDS011;7845;53.698;10.078;2023-06-04T08:39:38;3.00;;;1.33;;
15486;SDS011;7845;53.698;10.078;2023-06-04T08:42:04;2.30;;;1.10;;
15486;SDS011;7845;53.698;10.078;2023-06-04T08:44:34;2.40;;;1.13;;
15486;SDS011;7845;53.698;10.078;2023-06-04T08:47:03;3.13;;;1.57;;
15486;SDS011;7845;53.698;10.078;2023-06-04T08:49:34;2.50;;;1.20;;
15486;SDS011;7845;53.698;10.078;2023-06-04T08:52:02;3.97;;;2.00;;
15486;SDS011;7845;53.698;10.078;2023-06-04T08:54:29;2.73;;;1.10;;
15486;SDS011;7845;53.698;10.078;2023-06-04T08:56:58;2.43;;;1.10;;
15486;SDS011;7845;53.698;10.078;2023-06-04T08:59:23;2.40;;;1.13;;
15486;SDS011;7845;53.698;10.078;2023-06-04T09:01:51;3.80;;;1.40;;
15486;SDS011;7845;53.698;10.078;2023-06-04T09:04:18;2.57;;;1.27;;
15486;SDS011;7845;53.698;10.078;2023-06-04T09:06:44;3.03;;;1.53;;
15486;SDS011;7845;53.698;10.078;2023-06-04T09:09:11;2.30;;;1.00;;
15486;SDS011;7845;53.698;10.078;2023-06-04T09:11:50;2.67;;;1.47;;
15486;SDS011;7845;53.698;10.078;2023-06-04T09:14:17;3.07;;;1.27;;
15486;SDS011;7845;53.698;10.078;2023-06-04T09:16:46;2.60;;;1.30;;
15486;SDS011;7845;53.698;10.078;2023-06-04T09:19:14;2.37;;;1.00;;
15486;SDS011;7845;53.698;10.078;2023-06-04T09:21:55;2.70;;;1.47;;
15486;SDS011;7845;53.698;10.078;2023-06-04T09:27:27;2.20;;;0.90;;
15486;SDS011;7845;53.698;10.078;2023-06-04T09:30:02;2.73;;;1.50;;
15486;SDS011;7845;53.698;10.078;2023-06-04T09:32:28;3.03;;;1.17;;
15486;SDS011;7845;53.698;10.078;2023-06-04T09:35:07;2.50;;;1.30;;
15486;SDS011;7845;53.698;10.078;2023-06-04T09:37:38;3.70;;;1.03;;
15486;SDS011;7845;53.698;10.078;2023-06-04T09:40:07;2.30;;;1.10;;
15486;SDS011;7845;53.698;10.078;2023-06-04T09:42:44;2.37;;;1.23;;
15486;SDS011;7845;53.698;10.078;2023-06-04T09:45:10;2.53;;;1.23;;
15486;SDS011;7845;53.698;10.078;2023-06-04T09:47:43;2.40;;;1.10;;
15486;SDS011;7845;53.698;10.078;2023-06-04T09:50:10;2.57;;;1.10;;
15486;SDS011;7845;53.698;10.078;2023-06-04T09:52:37;4.57;;;1.50;;
15486;SDS011;7845;53.698;10.078;2023-06-04T09:55:22;3.00;;;1.10;;
15486;SDS011;7845;53.698;10.078;2023-06-04T09:57:50;3.00;;;1.47;;
15486;SDS011;7845;53.698;10.078;2023-06-04T10:00:16;3.37;;;1.20;;
15486;SDS011;7845;53.698;10.078;2023-06-04T10:02:43;2.40;;;1.10;;
15486;SDS011;7845;53.698;10.078;2023-06-04T10:05:11;3.20;;;2.07;;
15486;SDS011;7845;53.698;10.078;2023-06-04T10:07:39;2.33;;;1.07;;
15486;SDS011;7845;53.698;10.078;2023-06-04T10:10:08;2.73;;;1.50;;
15486;SDS011;7845;53.698;10.078;2023-06-04T10:12:36;2.70;;;1.00;;
15486;SDS011;7845;53.698;10.078;2023-06-04T10:15:10;2.23;;;1.00;;
15486;SDS011;7845;53.698;10.078;2023-06-04T10:17:37;2.80;;;1.20;;
15486;SDS011;7845;53.698;10.078;2023-06-04T10:20:08;2.83;;;1.33;;
15486;SDS011;7845;53.698;10.078;2023-06-04T10:22:35;2.20;;;1.00;;
15486;SDS011;7845;53.698;10.078;2023-06-04T10:25:07;2.43;;;1.07;;
15486;SDS011;7845;53.698;10.078;2023-06-04T10:27:35;2.80;;;1.50;;
15486;SDS011;7845;53.698;10.078;2023-06-04T10:30:02;2.60;;;1.13;;
15486;SDS011;7845;53.698;10.078;2023-06-04T10:32:32;2.60;;;1.10;;
15486;SDS011;7845;53.698;10.078;2023-06-04T10:34:57;2.43;;;1.10;;
15486;SDS011;7845;53.698;10.078;2023-06-04T10:37:23;2.40;;;1.33;;
15486;SDS011;7845;53.698;10.078;2023-06-04T10:39:53;2.70;;;1.30;;
15486;SDS011;7845;53.698;10.078;2023-06-04T10:42:22;2.77;;;1.50;;
15486;SDS011;7845;53.698;10.078;2023-06-04T10:44:50;4.07;;;1.30;;
15486;SDS011;7845;53.698;10.078;2023-06-04T10:47:24;2.57;;;1.53;;
15486;SDS011;7845;53.698;10.078;2023-06-04T10:49:51;3.13;;;1.23;;
15486;SDS011;7845;53.698;10.078;2023-06-04T10:52:19;2.93;;;1.87;;
15486;SDS011;7845;53.698;10.078;2023-06-04T10:54:46;3.97;;;1.17;;
15486;SDS011;7845;53.698;10.078;2023-06-04T10:57:17;2.83;;;0.90;;
15486;SDS011;7845;53.698;10.078;2023-06-04T10:59:53;2.23;;;0.70;;
15486;SDS011;7845;53.698;10.078;2023-06-04T11:02:25;2.50;;;1.10;;
15486;SDS011;7845;53.698;10.078;2023-06-04T11:05:12;3.37;;;1.30;;
15486;SDS011;7845;53.698;10.078;2023-06-04T11:07:40;2.83;;;1.17;;
15486;SDS011;7845;53.698;10.078;2023-06-04T11:10:11;3.50;;;1.47;;
15486;SDS011;7845;53.698;10.078;2023-06-04T11:12:46;2.37;;;1.20;;
15486;SDS011;7845;53.698;10.078;2023-06-04T11:15:14;2.10;;;1.10;;
15486;SDS011;7845;53.698;10.078;2023-06-04T11:17:53;2.70;;;1.07;;
15486;SDS011;7845;53.698;10.078;2023-06-04T11:20:20;2.70;;;1.30;;
15486;SDS011;7845;53.698;10.078;2023-06-04T11:22:54;2.10;;;1.07;;
15486;SDS011;7845;53.698;10.078;2023-06-04T11:25:25;2.20;;;1.10;;
15486;SDS011;7845;53.698;10.078;2023-06-04T11:27:55;2.23;;;1.20;;
15486;SDS011;7845;53.698;10.078;2023-06-04T11:30:23;2.43;;;1.20;;
15486;SDS011;7845;53.698;10.078;2023-06-04T11:32:50;3.10;;;1.50;;
15486;SDS011;7845;53.698;10.078;2023-06-04T11:35:25;3.23;;;1.33;;
15486;SDS011;7845;53.698;10.078;2023-06-04T11:37:55;2.80;;;1.30;;
15486;SDS011;7845;53.698;10.078;2023-06-04T11:40:23;7.83;;;1.50;;
15486;SDS011;7845;53.698;10.078;2023-06-04T11:42:52;2.90;;;1.63;;
15486;SDS011;7845;53.698;10.078;2023-06-04T11:45:20;3.37;;;1.30;;
15486;SDS011;7845;53.698;10.078;2023-06-04T11:47:52;2.50;;;1.40;;
15486;SDS011;7845;53.698;10.078;2023-06-04T11:50:20;2.40;;;1.30;;
15486;SDS011;7845;53.698;10.078;2023-06-04T11:52:47;3.00;;;1.50;;
15486;SDS011;7845;53.698;10.078;2023-06-04T11:55:13;2.40;;;1.33;;
15486;SDS011;7845;53.698;10.078;2023-06-04T11:57:42;2.50;;;1.10;;
15486;SDS011;7845;53.698;10.078;2023-06-04T12:00:09;2.40;;;1.20;;
15486;SDS011;7845;53.698;10.078;2023-06-04T12:02:53;2.30;;;1.10;;
15486;SDS011;7845;53.698;10.078;2023-06-04T12:05:20;2.83;;;1.40;;
15486;SDS011;7845;53.698;10.078;2023-06-04T12:07:48;2.40;;;1.17;;
15486;SDS011;7845;53.698;10.078;2023-06-04T12:10:16;2.70;;;1.00;;
15486;SDS011;7845;53.698;10.078;2023-06-04T12:12:45;2.90;;;1.37;;
15486;SDS011;7845;53.698;10.078;2023-06-04T12:15:11;3.60;;;1.63;;
15486;SDS011;7845;53.698;10.078;2023-06-04T12:17:48;2.50;;;1.20;;
15486;SDS011;7845;53.698;10.078;2023-06-04T12:20:18;2.10;;;1.00;;
15486;SDS011;7845;53.698;10.078;2023-06-04T12:23:03;2.97;;;1.23;;
15486;SDS011;7845;53.698;10.078;2023-06-04T12:25:32;2.40;;;1.20;;
15486;SDS011;7845;53.698;10.078;2023-06-04T12:27:59;2.70;;;1.37;;
15486;SDS011;7845;53.698;10.078;2023-06-04T12:30:38;2.20;;;1.20;;
15486;SDS011;7845;53.698;10.078;2023-06-04T12:33:05;2.30;;;0.90;;
15486;SDS011;7845;53.698;10.078;2023-06-04T12:35:30;2.60;;;0.97;;
15486;SDS011;7845;53.698;10.078;2023-06-04T12:37:56;2.57;;;0.90;;
15486;SDS011;7845;53.698;10.078;2023-06-04T12:40:21;2.40;;;1.00;;
15486;SDS011;7845;53.698;10.078;2023-06-04T12:42:49;2.30;;;0.90;;
15486;SDS011;7845;53.698;10.078;2023-06-04T12:45:15;2.10;;;1.10;;
15486;SDS011;7845;53.698;10.078;2023-06-04T12:47:40;2.30;;;1.07;;
15486;SDS011;7845;53.698;10.078;2023-06-04T12:50:07;2.03;;;0.83;;
15486;SDS011;7845;53.698;10.078;2023-06-04T12:52:34;2.40;;;1.60;;
15486;SDS011;7845;53.698;10.078;2023-06-04T12:54:59;3.13;;;0.90;;
15486;SDS011;7845;53.698;10.078;2023-06-04T12:57:25;2.40;;;0.90;;
15486;SDS011;7845;53.698;10.078;2023-06-04T12:59:50;3.10;;;1.30;;
15486;SDS011;7845;53.698;10.078;2023-06-04T13:02:16;2.00;;;1.00;;
15486;SDS011;7845;53.698;10.078;2023-06-04T13:04:42;2.77;;;1.00;;
15486;SDS011;7845;53.698;10.078;2023-06-04T13:07:09;2.37;;;1.00;;
15486;SDS011;7845;53.698;10.078;2023-06-04T13:09:37;2.70;;;1.00;;
15486;SDS011;7845;53.698;10.078;2023-06-04T13:12:04;2.77;;;1.13;;
15486;SDS011;7845;53.698;10.078;2023-06-04T13:14:30;2.40;;;1.13;;
15486;SDS011;7845;53.698;10.078;2023-06-04T13:16:59;3.13;;;1.20;;
15486;SDS011;7845;53.698;10.078;2023-06-04T13:19:28;2.40;;;1.30;;
15486;SDS011;7845;53.698;10.078;2023-06-04T13:21:54;2.60;;;1.20;;
15486;SDS011;7845;53.698;10.078;2023-06-04T13:24:22;2.50;;;1.13;;
15486;SDS011;7845;53.698;10.078;2023-06-04T13:26:47;2.57;;;1.40;;
15486;SDS011;7845;53.698;10.078;2023-06-04T13:29:12;2.20;;;1.10;;
15486;SDS011;7845;53.698;10.078;2023-06-04T13:31:40;2.23;;;1.10;;
15486;SDS011;7845;53.698;10.078;2023-06-04T13:34:05;2.73;;;1.10;;
15486;SDS011;7845;53.698;10.078;2023-06-04T13:36:32;2.20;;;1.20;;
15486;SDS011;7845;53.698;10.078;2023-06-04T13:38:57;2.30;;;1.10;;
15486;SDS011;7845;53.698;10.078;2023-06-04T13:41:23;4.60;;;1.27;;
15486;SDS011;7845;53.698;10.078;2023-06-04T13:43:48;2.83;;;1.20;;
15486;SDS011;7845;53.698;10.078;2023-06-04T13:46:14;2.23;;;1.10;;
15486;SDS011;7845;53.698;10.078;2023-06-04T13:48:39;2.40;;;1.27;;
15486;SDS011;7845;53.698;10.078;2023-06-04T13:51:04;2.40;;;1.10;;
15486;SDS011;7845;53.698;10.078;2023-06-04T13:53:30;2.90;;;1.40;;
15486;SDS011;7845;53.698;10.078;2023-06-04T13:55:55;2.40;;;1.13;;
15486;SDS011;7845;53.698;10.078;2023-06-04T13:58:27;3.10;;;0.93;;
15486;SDS011;7845;53.698;10.078;2023-06-04T14:00:53;2.93;;;1.20;;
15486;SDS011;7845;53.698;10.078;2023-06-04T14:03:18;2.37;;;1.10;;
15486;SDS011;7845;53.698;10.078;2023-06-04T14:05:49;2.40;;;1.30;;
15486;SDS011;7845;53.698;10.078;2023-06-04T14:08:15;2.33;;;1.00;;
15486;SDS011;7845;53.698;10.078;2023-06-04T14:10:41;3.00;;;1.23;;
15486;SDS011;7845;53.698;10.078;2023-06-04T14:13:07;2.40;;;0.93;;
15486;SDS011;7845;53.698;10.078;2023-06-04T14:15:33;3.30;;;1.70;;
15486;SDS011;7845;53.698;10.078;2023-06-04T14:17:58;2.93;;;0.90;;
15486;SDS011;7845;53.698;10.078;2023-06-04T14:20:24;3.57;;;1.30;;
15486;SDS011;7845;53.698;10.078;2023-06-04T14:22:49;2.30;;;1.20;;
15486;SDS011;7845;53.698;10.078;2023-06-04T14:25:15;2.77;;;1.20;;
15486;SDS011;7845;53.698;10.078;2023-06-04T14:27:40;2.80;;;1.40;;
15486;SDS011;7845;53.698;10.078;2023-06-04T14:30:06;2.70;;;1.20;;
15486;SDS011;7845;53.698;10.078;2023-06-04T14:32:32;3.00;;;1.40;;
15486;SDS011;7845;53.698;10.078;2023-06-04T14:34:59;2.90;;;1.13;;
15486;SDS011;7845;53.698;10.078;2023-06-04T14:37:26;3.90;;;1.50;;
15486;SDS011;7845;53.698;10.078;2023-06-04T14:39:51;2.60;;;1.03;;
15486;SDS011;7845;53.698;10.078;2023-06-04T14:42:16;3.03;;;1.57;;
15486;SDS011;7845;53.698;10.078;2023-06-04T14:44:43;2.40;;;1.00;;
15486;SDS011;7845;53.698;10.078;2023-06-04T14:47:10;3.80;;;1.40;;
15486;SDS011;7845;53.698;10.078;2023-06-04T14:49:35;3.00;;;1.10;;
15486;SDS011;7845;53.698;10.078;2023-06-04T14:52:02;3.47;;;1.63;;
15486;SDS011;7845;53.698;10.078;2023-06-04T14:54:28;3.00;;;1.20;;
15486;SDS011;7845;53.698;10.078;2023-06-04T14:56:54;2.67;;;1.30;;